sensor_id;sensor_type;location;lat;lon;timestamp;pressure;altitude;pressure_sealevel;temperature;humidity
64967;BME280;51710;38.732;-121.358;2022-12-20T00:00:58;102202.44;;;7.65;74.73
64967;BME280;51710;38.732;-121.358;2022-12-20T00:03:25;102191.94;;;7.64;75.07
64967;BME280;51710;38.732;-121.358;2022-12-20T00:05:51;102179.44;;;7.66;75.10
64967;BME280;51710;38.732;-121.358;2022-12-20T00:08:17;102178.50;;;7.67;75.36
64967;BME280;51710;38.732;-121.358;2022-12-20T00:10:44;102181.16;;;7.67;75.23
64967;BME280;51710;38.732;-121.358;2022-12-20T00:13:11;102198.97;;;7.65;75.37
64967;BME280;51710;38.732;-121.358;2022-12-20T00:15:38;102202.97;;;7.58;74.82
64967;BME280;51710;38.732;-121.358;2022-12-20T00:18:04;102203.34;;;7.52;75.48
64967;BME280;51710;38.732;-121.358;2022-12-20T00:20:31;102215.41;;;7.43;75.08
64967;BME280;51710;38.732;-121.358;2022-12-20T00:22:57;102215.84;;;7.37;75.10
64967;BME280;51710;38.732;-121.358;2022-12-20T00:25:24;102227.69;;;7.32;75.35
64967;BME280;51710;38.732;-121.358;2022-12-20T00:27:50;102220.88;;;7.28;75.49
64967;BME280;51710;38.732;-121.358;2022-12-20T00:30:17;102215.66;;;7.26;76.01
64967;BME280;51710;38.732;-121.358;2022-12-20T00:32:44;102212.91;;;7.28;76.09
64967;BME280;51710;38.732;-121.358;2022-12-20T00:35:11;102196.06;;;7.29;75.96
64967;BME280;51710;38.732;-121.358;2022-12-20T00:37:38;102208.38;;;7.30;76.15
64967;BME280;51710;38.732;-121.358;2022-12-20T00:40:05;102217.25;;;7.29;75.58
64967;BME280;51710;38.732;-121.358;2022-12-20T00:42:31;102219.34;;;7.24;75.79
64967;BME280;51710;38.732;-121.358;2022-12-20T00:44:58;102218.81;;;7.19;75.97
64967;BME280;51710;38.732;-121.358;2022-12-20T00:47:24;102211.44;;;7.10;75.46
64967;BME280;51710;38.732;-121.358;2022-12-20T00:49:50;102207.41;;;7.04;75.52
64967;BME280;51710;38.732;-121.358;2022-12-20T00:52:17;102226.13;;;7.01;76.34
64967;BME280;51710;38.732;-121.358;2022-12-20T00:54:43;102241.66;;;6.93;75.85
64967;BME280;51710;38.732;-121.358;2022-12-20T00:57:10;102239.50;;;6.85;75.96
64967;BME280;51710;38.732;-121.358;2022-12-20T00:59:36;102217.66;;;6.82;76.31
64967;BME280;51710;38.732;-121.358;2022-12-20T01:02:03;102214.25;;;6.80;77.03
64967;BME280;51710;38.732;-121.358;2022-12-20T01:04:29;102220.50;;;6.79;76.89
64967;BME280;51710;38.732;-121.358;2022-12-20T01:06:55;102227.31;;;6.83;77.23
64967;BME280;51710;38.732;-121.358;2022-12-20T01:09:21;102219.06;;;6.88;77.25
64967;BME280;51710;38.732;-121.358;2022-12-20T01:11:48;102206.47;;;6.91;77.33
64967;BME280;51710;38.732;-121.358;2022-12-20T01:14:15;102207.25;;;6.93;77.09
64967;BME280;51710;38.732;-121.358;2022-12-20T01:16:43;102210.66;;;6.95;76.97
64967;BME280;51710;38.732;-121.358;2022-12-20T01:19:13;102201.63;;;6.98;77.14
64967;BME280;51710;38.732;-121.358;2022-12-20T01:21:40;102191.91;;;6.98;76.69
64967;BME280;51710;38.732;-121.358;2022-12-20T01:24:12;102192.97;;;6.96;76.87
64967;BME280;51710;38.732;-121.358;2022-12-20T01:26:40;102214.53;;;6.90;77.15
64967;BME280;51710;38.732;-121.358;2022-12-20T01:29:07;102220.69;;;6.90;77.24
64967;BME280;51710;38.732;-121.358;2022-12-20T01:31:33;102215.28;;;6.92;77.13
64967;BME280;51710;38.732;-121.358;2022-12-20T01:34:00;102212.84;;;6.89;76.81
64967;BME280;51710;38.732;-121.358;2022-12-20T01:36:30;102216.81;;;6.81;76.94
64967;BME280;51710;38.732;-121.358;2022-12-20T01:38:58;102216.34;;;6.75;77.39
64967;BME280;51710;38.732;-121.358;2022-12-20T01:41:27;102219.94;;;6.74;77.32
64967;BME280;51710;38.732;-121.358;2022-12-20T01:44:02;102235.34;;;6.67;77.47
64967;BME280;51710;38.732;-121.358;2022-12-20T01:46:34;102249.16;;;6.58;77.48
64967;BME280;51710;38.732;-121.358;2022-12-20T01:51:46;102236.84;;;6.57;77.88
64967;BME280;51710;38.732;-121.358;2022-12-20T01:54:16;102239.50;;;6.57;77.83
64967;BME280;51710;38.732;-121.358;2022-12-20T01:56:47;102231.50;;;6.59;77.72
64967;BME280;51710;38.732;-121.358;2022-12-20T01:59:16;102241.88;;;6.62;77.90
64967;BME280;51710;38.732;-121.358;2022-12-20T02:01:43;102240.91;;;6.63;78.33
64967;BME280;51710;38.732;-121.358;2022-12-20T02:04:09;102242.34;;;6.68;78.40
64967;BME280;51710;38.732;-121.358;2022-12-20T02:06:36;102238.56;;;6.72;77.71
64967;BME280;51710;38.732;-121.358;2022-12-20T02:09:03;102245.53;;;6.73;78.32
64967;BME280;51710;38.732;-121.358;2022-12-20T02:19:53;102252.94;;;6.68;77.89
64967;BME280;51710;38.732;-121.358;2022-12-20T02:25:32;102265.41;;;6.66;77.63
64967;BME280;51710;38.732;-121.358;2022-12-20T02:31:04;102260.66;;;6.57;77.96
64967;BME280;51710;38.732;-121.358;2022-12-20T02:33:33;102250.06;;;6.57;78.36
64967;BME280;51710;38.732;-121.358;2022-12-20T02:35:59;102265.13;;;6.57;78.36
64967;BME280;51710;38.732;-121.358;2022-12-20T02:38:31;102267.78;;;6.57;78.39
64967;BME280;51710;38.732;-121.358;2022-12-20T02:41:11;102264.06;;;6.59;77.98
64967;BME280;51710;38.732;-121.358;2022-12-20T02:43:42;102270.88;;;6.63;78.55
64967;BME280;51710;38.732;-121.358;2022-12-20T02:46:28;102271.56;;;6.67;78.38
64967;BME280;51710;38.732;-121.358;2022-12-20T02:49:00;102275.06;;;6.67;77.67
64967;BME280;51710;38.732;-121.358;2022-12-20T02:51:28;102282.25;;;6.65;77.65
64967;BME280;51710;38.732;-121.358;2022-12-20T02:53:57;102279.78;;;6.62;77.53
64967;BME280;51710;38.732;-121.358;2022-12-20T02:59:09;102285.44;;;6.56;77.98
64967;BME280;51710;38.732;-121.358;2022-12-20T03:01:41;102282.88;;;6.55;78.12
64967;BME280;51710;38.732;-121.358;2022-12-20T03:04:09;102276.94;;;6.51;77.69
64967;BME280;51710;38.732;-121.358;2022-12-20T03:06:35;102288.63;;;6.47;78.09
64967;BME280;51710;38.732;-121.358;2022-12-20T03:09:02;102281.66;;;6.46;78.31
64967;BME280;51710;38.732;-121.358;2022-12-20T03:11:28;102279.94;;;6.45;78.35
64967;BME280;51710;38.732;-121.358;2022-12-20T03:13:55;102280.88;;;6.44;78.82
64967;BME280;51710;38.732;-121.358;2022-12-20T03:16:21;102281.81;;;6.43;78.58
64967;BME280;51710;38.732;-121.358;2022-12-20T03:18:48;102280.13;;;6.42;78.24
64967;BME280;51710;38.732;-121.358;2022-12-20T03:21:14;102282.97;;;6.39;78.47
64967;BME280;51710;38.732;-121.358;2022-12-20T03:23:40;102272.28;;;6.41;78.48
64967;BME280;51710;38.732;-121.358;2022-12-20T03:26:07;102282.78;;;6.42;78.38
64967;BME280;51710;38.732;-121.358;2022-12-20T03:28:33;102280.88;;;6.44;78.65
64967;BME280;51710;38.732;-121.358;2022-12-20T03:31:00;102287.88;;;6.45;78.21
64967;BME280;51710;38.732;-121.358;2022-12-20T03:33:26;102282.78;;;6.42;78.51
64967;BME280;51710;38.732;-121.358;2022-12-20T03:35:53;102291.66;;;6.41;78.14
64967;BME280;51710;38.732;-121.358;2022-12-20T03:38:19;102294.13;;;6.44;78.53
64967;BME280;51710;38.732;-121.358;2022-12-20T03:40:45;102294.88;;;6.46;78.38
64967;BME280;51710;38.732;-121.358;2022-12-20T03:43:11;102297.34;;;6.49;78.52
64967;BME280;51710;38.732;-121.358;2022-12-20T03:45:38;102296.22;;;6.53;78.68
64967;BME280;51710;38.732;-121.358;2022-12-20T03:48:04;102296.97;;;6.55;78.52
64967;BME280;51710;38.732;-121.358;2022-12-20T03:50:30;102283.56;;;6.58;78.11
64967;BME280;51710;38.732;-121.358;2022-12-20T03:52:57;102284.47;;;6.57;78.20
64967;BME280;51710;38.732;-121.358;2022-12-20T03:55:23;102283.75;;;6.55;78.25
64967;BME280;51710;38.732;-121.358;2022-12-20T03:57:49;102291.84;;;6.52;78.41
64967;BME280;51710;38.732;-121.358;2022-12-20T04:00:16;102304.06;;;6.55;78.67
64967;BME280;51710;38.732;-121.358;2022-12-20T04:02:45;102311.31;;;6.51;77.97
64967;BME280;51710;38.732;-121.358;2022-12-20T04:05:12;102295.72;;;6.47;78.00
64967;BME280;51710;38.732;-121.358;2022-12-20T04:07:38;102302.06;;;6.44;78.06
64967;BME280;51710;38.732;-121.358;2022-12-20T04:10:05;102302.31;;;6.40;78.15
64967;BME280;51710;38.732;-121.358;2022-12-20T04:12:32;102282.97;;;6.39;78.40
64967;BME280;51710;38.732;-121.358;2022-12-20T04:14:59;102288.41;;;6.36;78.47
64967;BME280;51710;38.732;-121.358;2022-12-20T04:17:25;102292.00;;;6.35;78.70
64967;BME280;51710;38.732;-121.358;2022-12-20T04:19:51;102294.38;;;6.40;78.77
64967;BME280;51710;38.732;-121.358;2022-12-20T04:22:17;102300.34;;;6.43;78.87
64967;BME280;51710;38.732;-121.358;2022-12-20T04:24:44;102316.22;;;6.43;78.66
64967;BME280;51710;38.732;-121.358;2022-12-20T04:27:10;102314.72;;;6.39;78.23
64967;BME280;51710;38.732;-121.358;2022-12-20T04:29:37;102311.50;;;6.34;78.57
64967;BME280;51710;38.732;-121.358;2022-12-20T04:32:03;102322.16;;;6.33;78.86
64967;BME280;51710;38.732;-121.358;2022-12-20T04:34:29;102325.84;;;6.30;78.59
64967;BME280;51710;38.732;-121.358;2022-12-20T04:36:56;102324.16;;;6.29;78.93
64967;BME280;51710;38.732;-121.358;2022-12-20T04:39:22;102334.88;;;6.26;78.50
64967;BME280;51710;38.732;-121.358;2022-12-20T04:41:48;102342.22;;;6.21;78.71
64967;BME280;51710;38.732;-121.358;2022-12-20T04:44:15;102342.75;;;6.12;78.87
64967;BME280;51710;38.732;-121.358;2022-12-20T04:46:41;102343.81;;;6.10;79.03
64967;BME280;51710;38.732;-121.358;2022-12-20T04:49:08;102343.97;;;6.07;79.68
64967;BME280;51710;38.732;-121.358;2022-12-20T04:51:34;102351.84;;;6.08;79.69
64967;BME280;51710;38.732;-121.358;2022-12-20T04:54:00;102358.91;;;6.08;79.55
64967;BME280;51710;38.732;-121.358;2022-12-20T04:56:28;102360.88;;;6.04;79.63
64967;BME280;51710;38.732;-121.358;2022-12-20T04:58:55;102360.88;;;6.04;79.59
64967;BME280;51710;38.732;-121.358;2022-12-20T05:01:22;102365.97;;;6.07;79.37
64967;BME280;51710;38.732;-121.358;2022-12-20T05:03:49;102360.69;;;6.07;79.98
64967;BME280;51710;38.732;-121.358;2022-12-20T05:06:16;102356.94;;;6.11;80.19
64967;BME280;51710;38.732;-121.358;2022-12-20T05:08:43;102367.53;;;6.11;79.89
64967;BME280;51710;38.732;-121.358;2022-12-20T05:11:09;102375.53;;;6.10;79.73
64967;BME280;51710;38.732;-121.358;2022-12-20T05:13:36;102374.09;;;6.04;79.88
64967;BME280;51710;38.732;-121.358;2022-12-20T05:16:02;102377.06;;;5.98;79.71
64967;BME280;51710;38.732;-121.358;2022-12-20T05:18:28;102384.28;;;5.96;79.93
64967;BME280;51710;38.732;-121.358;2022-12-20T05:20:59;102392.25;;;5.95;80.31
64967;BME280;51710;38.732;-121.358;2022-12-20T05:23:44;102393.31;;;5.92;80.16
64967;BME280;51710;38.732;-121.358;2022-12-20T05:26:31;102389.78;;;5.92;79.98
64967;BME280;51710;38.732;-121.358;2022-12-20T05:28:58;102395.94;;;5.92;80.25
64967;BME280;51710;38.732;-121.358;2022-12-20T05:31:24;102389.78;;;5.92;80.42
64967;BME280;51710;38.732;-121.358;2022-12-20T05:33:50;102393.31;;;5.92;79.99
64967;BME280;51710;38.732;-121.358;2022-12-20T05:36:17;102386.97;;;5.95;80.20
64967;BME280;51710;38.732;-121.358;2022-12-20T05:38:43;102388.88;;;5.93;79.96
64967;BME280;51710;38.732;-121.358;2022-12-20T05:41:09;102392.44;;;5.92;79.93
64967;BME280;51710;38.732;-121.358;2022-12-20T05:43:35;102389.88;;;5.90;80.24
64967;BME280;51710;38.732;-121.358;2022-12-20T05:46:02;102394.16;;;5.93;79.97
64967;BME280;51710;38.732;-121.358;2022-12-20T05:48:28;102385.09;;;5.97;80.72
64967;BME280;51710;38.732;-121.358;2022-12-20T05:50:54;102383.03;;;6.02;80.54
64967;BME280;51710;38.732;-121.358;2022-12-20T05:53:21;102380.06;;;6.08;80.44
64967;BME280;51710;38.732;-121.358;2022-12-20T05:55:49;102388.84;;;6.08;80.64
64967;BME280;51710;38.732;-121.358;2022-12-20T05:58:16;102400.25;;;6.09;80.24
64967;BME280;51710;38.732;-121.358;2022-12-20T06:00:43;102404.53;;;6.11;80.55
64967;BME280;51710;38.732;-121.358;2022-12-20T06:03:10;102413.81;;;6.18;80.26
64967;BME280;51710;38.732;-121.358;2022-12-20T06:05:38;102416.47;;;6.18;80.31
64967;BME280;51710;38.732;-121.358;2022-12-20T06:08:06;102407.78;;;6.16;79.83
64967;BME280;51710;38.732;-121.358;2022-12-20T06:10:33;102407.78;;;6.16;79.74
64967;BME280;51710;38.732;-121.358;2022-12-20T06:13:00;102408.78;;;6.14;79.74
64967;BME280;51710;38.732;-121.358;2022-12-20T06:15:27;102401.97;;;6.10;79.83
64967;BME280;51710;38.732;-121.358;2022-12-20T06:17:54;102415.22;;;6.10;80.02
64967;BME280;51710;38.732;-121.358;2022-12-20T06:20:20;102411.69;;;6.09;80.33
64967;BME280;51710;38.732;-121.358;2022-12-20T06:22:47;102417.75;;;6.11;80.12
64967;BME280;51710;38.732;-121.358;2022-12-20T06:25:13;102414.00;;;6.15;80.17
64967;BME280;51710;38.732;-121.358;2022-12-20T06:27:40;102424.31;;;6.20;80.07
64967;BME280;51710;38.732;-121.358;2022-12-20T06:30:08;102434.63;;;6.24;79.93
64967;BME280;51710;38.732;-121.358;2022-12-20T06:32:35;102433.50;;;6.28;79.93
64967;BME280;51710;38.732;-121.358;2022-12-20T06:35:02;102439.00;;;6.25;79.84
64967;BME280;51710;38.732;-121.358;2022-12-20T06:37:28;102433.69;;;6.25;79.89
64967;BME280;51710;38.732;-121.358;2022-12-20T06:39:54;102436.34;;;6.25;79.68
64967;BME280;51710;38.732;-121.358;2022-12-20T06:42:21;102432.75;;;6.26;80.38
64967;BME280;51710;38.732;-121.358;2022-12-20T06:44:47;102442.41;;;6.27;80.04
64967;BME280;51710;38.732;-121.358;2022-12-20T06:47:13;102446.56;;;6.31;80.00
64967;BME280;51710;38.732;-121.358;2022-12-20T06:49:40;102451.13;;;6.29;79.55
64967;BME280;51710;38.732;-121.358;2022-12-20T06:52:06;102454.84;;;6.25;80.17
64967;BME280;51710;38.732;-121.358;2022-12-20T06:54:32;102457.59;;;6.24;79.74
64967;BME280;51710;38.732;-121.358;2022-12-20T06:56:58;102457.50;;;6.25;79.87
64967;BME280;51710;38.732;-121.358;2022-12-20T06:59:25;102458.28;;;6.27;79.86
64967;BME280;51710;38.732;-121.358;2022-12-20T07:01:51;102461.50;;;6.32;79.81
64967;BME280;51710;38.732;-121.358;2022-12-20T07:04:17;102466.44;;;6.38;80.07
64967;BME280;51710;38.732;-121.358;2022-12-20T07:06:44;102470.63;;;6.42;80.08
64967;BME280;51710;38.732;-121.358;2022-12-20T07:09:10;102474.91;;;6.45;80.00
64967;BME280;51710;38.732;-121.358;2022-12-20T07:11:37;102472.16;;;6.46;79.53
64967;BME280;51710;38.732;-121.358;2022-12-20T07:14:03;102468.66;;;6.46;79.76
64967;BME280;51710;38.732;-121.358;2022-12-20T07:16:29;102466.09;;;6.44;79.91
64967;BME280;51710;38.732;-121.358;2022-12-20T07:18:57;102462.41;;;6.47;80.04
64967;BME280;51710;38.732;-121.358;2022-12-20T07:21:23;102455.50;;;6.44;79.61
64967;BME280;51710;38.732;-121.358;2022-12-20T07:23:49;102447.56;;;6.44;80.06
64967;BME280;51710;38.732;-121.358;2022-12-20T07:26:16;102448.34;;;6.46;80.11
64967;BME280;51710;38.732;-121.358;2022-12-20T07:28:42;102444.75;;;6.47;80.12
64967;BME280;51710;38.732;-121.358;2022-12-20T07:31:09;102428.00;;;6.47;79.47
64967;BME280;51710;38.732;-121.358;2022-12-20T07:33:35;102430.75;;;6.45;79.93
64967;BME280;51710;38.732;-121.358;2022-12-20T07:36:09;102414.88;;;6.45;79.98
64967;BME280;51710;38.732;-121.358;2022-12-20T07:38:36;102416.00;;;6.41;79.77
64967;BME280;51710;38.732;-121.358;2022-12-20T07:41:10;102406.63;;;6.36;79.87
64967;BME280;51710;38.732;-121.358;2022-12-20T07:43:36;102410.28;;;6.33;80.18
64967;BME280;51710;38.732;-121.358;2022-12-20T07:46:05;102424.19;;;6.37;80.07
64967;BME280;51710;38.732;-121.358;2022-12-20T07:48:32;102427.69;;;6.37;79.96
64967;BME280;51710;38.732;-121.358;2022-12-20T07:51:01;102433.91;;;6.36;79.66
64967;BME280;51710;38.732;-121.358;2022-12-20T07:53:33;102429.41;;;6.38;79.93
64967;BME280;51710;38.732;-121.358;2022-12-20T07:56:02;102437.19;;;6.41;80.11
64967;BME280;51710;38.732;-121.358;2022-12-20T07:58:30;102431.69;;;6.44;79.98
64967;BME280;51710;38.732;-121.358;2022-12-20T08:00:58;102413.94;;;6.46;80.04
64967;BME280;51710;38.732;-121.358;2022-12-20T08:03:31;102406.16;;;6.43;79.92
64967;BME280;51710;38.732;-121.358;2022-12-20T08:06:01;102396.72;;;6.39;79.40
64967;BME280;51710;38.732;-121.358;2022-12-20T08:08:31;102413.72;;;6.35;79.57
64967;BME280;51710;38.732;-121.358;2022-12-20T08:10:58;102416.34;;;6.35;79.72
64967;BME280;51710;38.732;-121.358;2022-12-20T08:13:25;102424.09;;;6.38;80.06
64967;BME280;51710;38.732;-121.358;2022-12-20T08:15:51;102426.75;;;6.38;80.02
64967;BME280;51710;38.732;-121.358;2022-12-20T08:18:17;102419.19;;;6.32;79.88
64967;BME280;51710;38.732;-121.358;2022-12-20T08:20:44;102426.06;;;6.35;80.02
64967;BME280;51710;38.732;-121.358;2022-12-20T08:23:10;102437.94;;;6.28;79.95
64967;BME280;51710;38.732;-121.358;2022-12-20T08:25:36;102434.03;;;6.19;80.05
64967;BME280;51710;38.732;-121.358;2022-12-20T08:28:03;102439.50;;;6.16;80.07
64967;BME280;51710;38.732;-121.358;2022-12-20T08:30:29;102442.47;;;6.10;80.31
64967;BME280;51710;38.732;-121.358;2022-12-20T08:32:55;102437.38;;;6.07;80.41
64967;BME280;51710;38.732;-121.358;2022-12-20T08:35:22;102430.31;;;6.08;80.83
64967;BME280;51710;38.732;-121.358;2022-12-20T08:37:51;102435.31;;;6.12;80.96
64967;BME280;51710;38.732;-121.358;2022-12-20T08:40:18;102423.63;;;6.16;80.94
64967;BME280;51710;38.732;-121.358;2022-12-20T08:42:45;102418.00;;;6.22;80.48
64967;BME280;51710;38.732;-121.358;2022-12-20T08:45:12;102422.16;;;6.26;80.43
64967;BME280;51710;38.732;-121.358;2022-12-20T08:47:38;102435.56;;;6.23;80.33
64967;BME280;51710;38.732;-121.358;2022-12-20T08:50:05;102437.97;;;6.12;80.05
64967;BME280;51710;38.732;-121.358;2022-12-20T08:52:31;102449.09;;;6.03;80.33
64967;BME280;51710;38.732;-121.358;2022-12-20T08:54:58;102451.28;;;5.95;80.15
64967;BME280;51710;38.732;-121.358;2022-12-20T08:57:24;102439.34;;;5.88;80.91
64967;BME280;51710;38.732;-121.358;2022-12-20T08:59:50;102437.78;;;5.84;80.77
64967;BME280;51710;38.732;-121.358;2022-12-20T09:02:16;102440.59;;;5.81;81.19
64967;BME280;51710;38.732;-121.358;2022-12-20T09:04:43;102443.22;;;5.81;81.17
64967;BME280;51710;38.732;-121.358;2022-12-20T09:07:09;102446.03;;;5.78;81.36
64967;BME280;51710;38.732;-121.358;2022-12-20T09:09:35;102450.72;;;5.73;81.21
64967;BME280;51710;38.732;-121.358;2022-12-20T09:12:02;102449.00;;;5.72;81.31
64967;BME280;51710;38.732;-121.358;2022-12-20T09:14:28;102442.88;;;5.71;81.63
64967;BME280;51710;38.732;-121.358;2022-12-20T09:16:55;102433.16;;;5.72;81.95
64967;BME280;51710;38.732;-121.358;2022-12-20T09:19:21;102431.09;;;5.77;82.02
64967;BME280;51710;38.732;-121.358;2022-12-20T09:21:48;102415.25;;;5.77;81.81
64967;BME280;51710;38.732;-121.358;2022-12-20T09:27:36;102423.81;;;5.82;81.91
64967;BME280;51710;38.732;-121.358;2022-12-20T09:30:03;102434.38;;;5.82;82.32
64967;BME280;51710;38.732;-121.358;2022-12-20T09:32:30;102435.00;;;5.87;82.12
64967;BME280;51710;38.732;-121.358;2022-12-20T09:34:56;102449.06;;;5.88;81.79
64967;BME280;51710;38.732;-121.358;2022-12-20T09:37:22;102455.38;;;5.85;81.58
64967;BME280;51710;38.732;-121.358;2022-12-20T09:39:49;102466.03;;;5.84;81.52
64967;BME280;51710;38.732;-121.358;2022-12-20T09:42:22;102467.28;;;5.77;82.12
64967;BME280;51710;38.732;-121.358;2022-12-20T09:44:49;102479.81;;;5.73;81.75
64967;BME280;51710;38.732;-121.358;2022-12-20T09:47:21;102490.88;;;5.64;82.05
64967;BME280;51710;38.732;-121.358;2022-12-20T09:49:54;102498.41;;;5.54;82.34
64967;BME280;51710;38.732;-121.358;2022-12-20T10:00:46;102503.34;;;5.45;83.01
64967;BME280;51710;38.732;-121.358;2022-12-20T10:03:21;102504.22;;;5.45;82.91
64967;BME280;51710;38.732;-121.358;2022-12-20T10:05:54;102499.94;;;5.43;82.93
64967;BME280;51710;38.732;-121.358;2022-12-20T10:08:49;102502.47;;;5.44;83.30
64967;BME280;51710;38.732;-121.358;2022-12-20T10:14:57;102503.66;;;5.39;82.93
64967;BME280;51710;38.732;-121.358;2022-12-20T10:17:45;102505.53;;;5.37;83.41
64967;BME280;51710;38.732;-121.358;2022-12-20T10:20:29;102496.69;;;5.38;83.53
64967;BME280;51710;38.732;-121.358;2022-12-20T10:25:50;102510.66;;;5.40;83.48
64967;BME280;51710;38.732;-121.358;2022-12-20T10:28:20;102508.88;;;5.40;83.16
64967;BME280;51710;38.732;-121.358;2022-12-20T10:30:50;102508.94;;;5.39;83.15
64967;BME280;51710;38.732;-121.358;2022-12-20T10:33:22;102499.22;;;5.39;83.62
64967;BME280;51710;38.732;-121.358;2022-12-20T10:35:49;102501.66;;;5.44;83.72
64967;BME280;51710;38.732;-121.358;2022-12-20T10:38:16;102506.69;;;5.48;83.36
64967;BME280;51710;38.732;-121.358;2022-12-20T10:41:10;102488.28;;;5.47;83.66
64967;BME280;51710;38.732;-121.358;2022-12-20T10:43:56;102494.34;;;5.49;83.62
64967;BME280;51710;38.732;-121.358;2022-12-20T10:46:44;102490.91;;;5.47;83.67
64967;BME280;51710;38.732;-121.358;2022-12-20T10:54:37;102469.59;;;5.50;83.70
64967;BME280;51710;38.732;-121.358;2022-12-20T10:57:24;102460.72;;;5.51;83.61
64967;BME280;51710;38.732;-121.358;2022-12-20T11:00:00;102465.69;;;5.57;83.65
64967;BME280;51710;38.732;-121.358;2022-12-20T11:07:28;102473.91;;;5.68;83.13
64967;BME280;51710;38.732;-121.358;2022-12-20T11:09:58;102466.75;;;5.70;83.48
64967;BME280;51710;38.732;-121.358;2022-12-20T11:12:24;102469.22;;;5.73;83.67
64967;BME280;51710;38.732;-121.358;2022-12-20T11:15:09;102462.06;;;5.75;83.54
64967;BME280;51710;38.732;-121.358;2022-12-20T11:17:42;102463.00;;;5.74;82.88
64967;BME280;51710;38.732;-121.358;2022-12-20T11:34:36;102439.38;;;5.71;83.17
64967;BME280;51710;38.732;-121.358;2022-12-20T11:53:19;102401.31;;;5.91;82.35
64967;BME280;51710;38.732;-121.358;2022-12-20T11:55:51;102405.84;;;5.89;82.70
64967;BME280;51710;38.732;-121.358;2022-12-20T12:01:15;102391.84;;;5.87;82.66
64967;BME280;51710;38.732;-121.358;2022-12-20T12:03:58;102385.69;;;5.86;82.32
64967;BME280;51710;38.732;-121.358;2022-12-20T12:06:37;102378.44;;;5.90;83.05
64967;BME280;51710;38.732;-121.358;2022-12-20T12:09:16;102371.09;;;5.95;82.87
64967;BME280;51710;38.732;-121.358;2022-12-20T12:11:51;102376.25;;;5.98;83.08
64967;BME280;51710;38.732;-121.358;2022-12-20T12:14:32;102379.66;;;6.00;82.67
64967;BME280;51710;38.732;-121.358;2022-12-20T12:17:23;102371.63;;;6.01;82.67
64967;BME280;51710;38.732;-121.358;2022-12-20T12:19:52;102351.16;;;6.05;82.94
64967;BME280;51710;38.732;-121.358;2022-12-20T12:22:26;102347.66;;;6.04;82.55
64967;BME280;51710;38.732;-121.358;2022-12-20T12:24:59;102348.25;;;6.09;82.99
64967;BME280;51710;38.732;-121.358;2022-12-20T12:27:28;102344.63;;;6.10;82.89
64967;BME280;51710;38.732;-121.358;2022-12-20T12:29:57;102342.94;;;6.09;82.35
64967;BME280;51710;38.732;-121.358;2022-12-20T12:32:30;102341.41;;;6.05;82.24
64967;BME280;51710;38.732;-121.358;2022-12-20T12:46:11;102325.09;;;5.83;82.95
64967;BME280;51710;38.732;-121.358;2022-12-20T12:51:07;102348.78;;;5.69;82.55
64967;BME280;51710;38.732;-121.358;2022-12-20T12:53:49;102341.63;;;5.55;82.93
64967;BME280;51710;38.732;-121.358;2022-12-20T13:11:51;102373.31;;;5.40;83.96
64967;BME280;51710;38.732;-121.358;2022-12-20T13:27:17;102377.03;;;5.20;84.56
64967;BME280;51710;38.732;-121.358;2022-12-20T13:32:57;102378.88;;;5.18;84.95
64967;BME280;51710;38.732;-121.358;2022-12-20T13:40:48;102393.34;;;5.11;85.97
64967;BME280;51710;38.732;-121.358;2022-12-20T13:43:25;102377.69;;;5.08;86.14
64967;BME280;51710;38.732;-121.358;2022-12-20T13:46:10;102390.97;;;5.07;86.15
64967;BME280;51710;38.732;-121.358;2022-12-20T13:48:49;102399.09;;;5.02;86.38
64967;BME280;51710;38.732;-121.358;2022-12-20T13:51:22;102396.63;;;4.99;86.51
64967;BME280;51710;38.732;-121.358;2022-12-20T13:53:53;102404.56;;;4.99;86.82
64967;BME280;51710;38.732;-121.358;2022-12-20T13:56:49;102405.41;;;5.00;87.02
64967;BME280;51710;38.732;-121.358;2022-12-20T13:59:29;102412.38;;;5.01;87.02
64967;BME280;51710;38.732;-121.358;2022-12-20T14:01:59;102403.56;;;5.02;87.02
64967;BME280;51710;38.732;-121.358;2022-12-20T14:04:40;102417.66;;;5.01;87.25
64967;BME280;51710;38.732;-121.358;2022-12-20T14:07:09;102414.09;;;5.02;87.30
64967;BME280;51710;38.732;-121.358;2022-12-20T14:09:38;102411.47;;;5.02;87.24
64967;BME280;51710;38.732;-121.358;2022-12-20T14:12:22;102414.25;;;4.99;87.18
64967;BME280;51710;38.732;-121.358;2022-12-20T14:14:49;102410.69;;;5.00;87.47
64967;BME280;51710;38.732;-121.358;2022-12-20T14:17:29;102424.06;;;4.97;87.93
64967;BME280;51710;38.732;-121.358;2022-12-20T14:23:10;102416.88;;;4.99;88.30
64967;BME280;51710;38.732;-121.358;2022-12-20T14:25:50;102424.59;;;5.03;88.07
64967;BME280;51710;38.732;-121.358;2022-12-20T14:28:24;102436.69;;;5.07;88.48
64967;BME280;51710;38.732;-121.358;2022-12-20T14:30:52;102440.88;;;5.11;88.58
64967;BME280;51710;38.732;-121.358;2022-12-20T14:33:25;102438.22;;;5.11;88.63
64967;BME280;51710;38.732;-121.358;2022-12-20T14:35:52;102434.41;;;5.17;88.33
64967;BME280;51710;38.732;-121.358;2022-12-20T14:38:27;102435.97;;;5.21;89.14
64967;BME280;51710;38.732;-121.358;2022-12-20T14:40:55;102441.09;;;5.24;88.53
64967;BME280;51710;38.732;-121.358;2022-12-20T14:43:41;102444.50;;;5.26;88.39
64967;BME280;51710;38.732;-121.358;2022-12-20T14:46:16;102448.75;;;5.28;88.33
64967;BME280;51710;38.732;-121.358;2022-12-20T14:48:42;102449.31;;;5.35;88.53
64967;BME280;51710;38.732;-121.358;2022-12-20T14:51:09;102447.09;;;5.43;88.46
64967;BME280;51710;38.732;-121.358;2022-12-20T14:53:36;102458.34;;;5.46;88.54
64967;BME280;51710;38.732;-121.358;2022-12-20T14:56:04;102456.56;;;5.47;88.25